sensor_id;sensor_type;location;lat;lon;timestamp;pressure;altitude;pressure_sealevel;temperature;humidity
6938;BME280;40040;42.706;23.372;2023-03-25T00:00:22;146447.94;;;9.22;98.97
6938;BME280;40040;42.706;23.372;2023-03-25T00:02:50;146550.25;;;9.64;99.29
6938;BME280;40040;42.706;23.372;2023-03-25T00:05:19;146542.81;;;9.61;99.92
6938;BME280;40040;42.706;23.372;2023-03-25T00:07:48;146552.69;;;9.65;98.97
6938;BME280;40040;42.706;23.372;2023-03-25T00:10:16;146514.47;;;9.49;98.38
6938;BME280;40040;42.706;23.372;2023-03-25T00:12:43;146530.50;;;9.56;99.46
6938;BME280;40040;42.706;23.372;2023-03-25T00:15:11;146470.09;;;9.31;99.78
6938;BME280;40040;42.706;23.372;2023-03-25T00:17:39;146466.41;;;9.30;100.00
6938;BME280;40040;42.706;23.372;2023-03-25T00:20:08;146452.84;;;9.24;100.00
6938;BME280;40040;42.706;23.372;2023-03-25T00:22:36;146360.44;;;8.86;100.00
6938;BME280;40040;42.706;23.372;2023-03-25T00:25:06;146439.31;;;9.19;100.00
6938;BME280;40040;42.706;23.372;2023-03-25T00:27:34;146471.34;;;9.32;100.00
6938;BME280;40040;42.706;23.372;2023-03-25T00:30:01;146444.22;;;9.21;100.00
6938;BME280;40040;42.706;23.372;2023-03-25T00:32:27;146424.50;;;9.13;100.00
6938;BME280;40040;42.706;23.372;2023-03-25T00:34:56;146428.19;;;9.14;100.00
6938;BME280;40040;42.706;23.372;2023-03-25T00:37:24;146440.53;;;9.19;100.00
6938;BME280;40040;42.706;23.372;2023-03-25T00:39:51;146398.63;;;9.02;100.00
6938;BME280;40040;42.706;23.372;2023-03-25T00:42:18;146424.50;;;9.13;100.00
6938;BME280;40040;42.706;23.372;2023-03-25T00:44:50;146402.31;;;9.03;100.00
6938;BME280;40040;42.706;23.372;2023-03-25T00:47:18;146370.31;;;8.90;100.00
6938;BME280;40040;42.706;23.372;2023-03-25T00:49:46;146404.81;;;9.04;100.00
6938;BME280;40040;42.706;23.372;2023-03-25T00:52:14;146348.13;;;8.81;100.00
6938;BME280;40040;42.706;23.372;2023-03-25T00:54:41;146390.00;;;8.98;100.00
6938;BME280;40040;42.706;23.372;2023-03-25T00:57:10;146355.50;;;8.84;100.00
6938;BME280;40040;42.706;23.372;2023-03-25T00:59:36;146385.06;;;8.96;100.00
6938;BME280;40040;42.706;23.372;2023-03-25T01:02:03;146370.31;;;8.90;100.00
6938;BME280;40040;42.706;23.372;2023-03-25T01:04:31;146359.19;;;8.86;100.00
6938;BME280;40040;42.706;23.372;2023-03-25T01:06:58;146344.44;;;8.80;100.00
6938;BME280;40040;42.706;23.372;2023-03-25T01:09:27;146291.44;;;8.58;100.00
6938;BME280;40040;42.706;23.372;2023-03-25T01:11:54;146313.63;;;8.67;100.00
6938;BME280;40040;42.706;23.372;2023-03-25T01:14:21;146287.75;;;8.57;100.00
6938;BME280;40040;42.706;23.372;2023-03-25T01:16:51;146286.50;;;8.56;100.00
6938;BME280;40040;42.706;23.372;2023-03-25T01:19:18;146252.03;;;8.42;100.00
6938;BME280;40040;42.706;23.372;2023-03-25T01:21:45;146269.25;;;8.49;100.00
6938;BME280;40040;42.706;23.372;2023-03-25T01:24:13;146263.13;;;8.47;100.00
6938;BME280;40040;42.706;23.372;2023-03-25T01:26:42;146279.13;;;8.53;100.00
6938;BME280;40040;42.706;23.372;2023-03-25T01:29:11;146271.75;;;8.50;100.00
6938;BME280;40040;42.706;23.372;2023-03-25T01:31:38;146154.69;;;8.02;100.00
6938;BME280;40040;42.706;23.372;2023-03-25T01:34:05;146202.72;;;8.22;100.00
6938;BME280;40040;42.706;23.372;2023-03-25T01:36:32;146207.72;;;8.24;100.00
6938;BME280;40040;42.706;23.372;2023-03-25T01:39:00;146213.84;;;8.27;100.00
6938;BME280;40040;42.706;23.372;2023-03-25T01:41:30;146202.72;;;8.22;100.00
6938;BME280;40040;42.706;23.372;2023-03-25T01:44:03;146210.16;;;8.25;100.00
6938;BME280;40040;42.706;23.372;2023-03-25T01:46:31;146205.19;;;8.23;100.00
6938;BME280;40040;42.706;23.372;2023-03-25T01:48:58;146173.19;;;8.10;100.00
6938;BME280;40040;42.706;23.372;2023-03-25T01:51:28;146179.31;;;8.13;100.00
6938;BME280;40040;42.706;23.372;2023-03-25T01:53:56;146159.63;;;8.05;100.00
6938;BME280;40040;42.706;23.372;2023-03-25T01:56:26;146141.16;;;7.97;100.00
6938;BME280;40040;42.706;23.372;2023-03-25T01:58:57;146116.53;;;7.87;100.00
6938;BME280;40040;42.706;23.372;2023-03-25T02:01:26;146149.75;;;8.00;100.00
6938;BME280;40040;42.706;23.372;2023-03-25T02:03:54;146121.47;;;7.89;100.00
6938;BME280;40040;42.706;23.372;2023-03-25T02:06:30;146136.22;;;7.95;100.00
6938;BME280;40040;42.706;23.372;2023-03-25T02:09:02;146110.41;;;7.84;100.00
6938;BME280;40040;42.706;23.372;2023-03-25T02:11:31;146100.53;;;7.80;100.00
6938;BME280;40040;42.706;23.372;2023-03-25T02:14:01;146089.44;;;7.76;100.00
6938;BME280;40040;42.706;23.372;2023-03-25T02:16:35;146030.38;;;7.52;100.00
6938;BME280;40040;42.706;23.372;2023-03-25T02:22:21;146052.53;;;7.61;100.00
6938;BME280;40040;42.706;23.372;2023-03-25T02:25:12;146019.31;;;7.47;100.00
6938;BME280;40040;42.706;23.372;2023-03-25T02:27:56;146042.66;;;7.57;100.00
6938;BME280;40040;42.706;23.372;2023-03-25T02:30:36;145998.38;;;7.39;100.00
6938;BME280;40040;42.706;23.372;2023-03-25T02:33:38;145990.97;;;7.36;100.00
6938;BME280;40040;42.706;23.372;2023-03-25T02:39:31;146011.94;;;7.44;100.00
6938;BME280;40040;42.706;23.372;2023-03-25T02:42:04;146003.31;;;7.41;100.00
6938;BME280;40040;42.706;23.372;2023-03-25T02:44:36;145976.22;;;7.30;100.00
6938;BME280;40040;42.706;23.372;2023-03-25T02:47:07;146003.31;;;7.41;100.00
6938;BME280;40040;42.706;23.372;2023-03-25T02:49:37;145983.59;;;7.33;100.00
6938;BME280;40040;42.706;23.372;2023-03-25T02:52:10;145975.00;;;7.29;100.00
6938;BME280;40040;42.706;23.372;2023-03-25T02:54:40;145968.88;;;7.27;100.00
6938;BME280;40040;42.706;23.372;2023-03-25T02:57:12;145988.53;;;7.35;100.00
6938;BME280;40040;42.706;23.372;2023-03-25T02:59:40;145957.75;;;7.22;100.00
6938;BME280;40040;42.706;23.372;2023-03-25T03:02:10;145939.34;;;7.15;100.00
6938;BME280;40040;42.706;23.372;2023-03-25T03:04:47;145931.94;;;7.12;100.00
6938;BME280;40040;42.706;23.372;2023-03-25T03:07:21;145919.63;;;7.07;100.00
6938;BME280;40040;42.706;23.372;2023-03-25T03:09:56;145931.94;;;7.12;100.00
6938;BME280;40040;42.706;23.372;2023-03-25T03:12:39;145890.09;;;6.95;100.00
6938;BME280;40040;42.706;23.372;2023-03-25T03:15:20;145922.13;;;7.08;100.00
6938;BME280;40040;42.706;23.372;2023-03-25T03:18:00;145902.41;;;7.00;100.00
6938;BME280;40040;42.706;23.372;2023-03-25T03:20:37;145924.56;;;7.09;100.00
6938;BME280;40040;42.706;23.372;2023-03-25T03:23:08;145911.00;;;7.03;100.00
6938;BME280;40040;42.706;23.372;2023-03-25T03:25:44;145899.97;;;6.99;100.00
6938;BME280;40040;42.706;23.372;2023-03-25T03:28:15;145909.78;;;7.03;100.00
6938;BME280;40040;42.706;23.372;2023-03-25T03:30:49;145907.34;;;7.02;100.00
6938;BME280;40040;42.706;23.372;2023-03-25T03:33:21;145891.34;;;6.95;100.00
6938;BME280;40040;42.706;23.372;2023-03-25T03:35:54;145880.25;;;6.91;100.00
6938;BME280;40040;42.706;23.372;2023-03-25T03:38:25;145883.97;;;6.92;100.00
6938;BME280;40040;42.706;23.372;2023-03-25T03:40:55;145880.25;;;6.91;100.00
6938;BME280;40040;42.706;23.372;2023-03-25T03:43:26;145864.28;;;6.84;100.00
6938;BME280;40040;42.706;23.372;2023-03-25T03:45:58;145867.97;;;6.85;100.00
6938;BME280;40040;42.706;23.372;2023-03-25T03:48:31;145869.19;;;6.86;100.00
6938;BME280;40040;42.706;23.372;2023-03-25T03:51:02;145880.25;;;6.91;100.00
6938;BME280;40040;42.706;23.372;2023-03-25T03:53:35;145899.97;;;6.99;100.00
6938;BME280;40040;42.706;23.372;2023-03-25T03:56:07;145890.09;;;6.95;100.00
6938;BME280;40040;42.706;23.372;2023-03-25T03:58:38;145799.06;;;6.57;100.00
6938;BME280;40040;42.706;23.372;2023-03-25T04:01:09;145864.28;;;6.84;100.00
6938;BME280;40040;42.706;23.372;2023-03-25T04:03:41;145870.44;;;6.87;100.00
6938;BME280;40040;42.706;23.372;2023-03-25T04:06:14;145853.22;;;6.79;100.00
6938;BME280;40040;42.706;23.372;2023-03-25T04:08:51;145860.59;;;6.82;100.00
6938;BME280;40040;42.706;23.372;2023-03-25T04:11:26;145864.28;;;6.84;100.00
6938;BME280;40040;42.706;23.372;2023-03-25T04:13:56;145861.84;;;6.83;100.00
6938;BME280;40040;42.706;23.372;2023-03-25T04:16:25;145858.16;;;6.81;100.00
6938;BME280;40040;42.706;23.372;2023-03-25T04:18:53;145837.19;;;6.73;100.00
6938;BME280;40040;42.706;23.372;2023-03-25T04:21:20;145850.72;;;6.78;100.00
6938;BME280;40040;42.706;23.372;2023-03-25T04:23:47;145845.81;;;6.76;100.00
6938;BME280;40040;42.706;23.372;2023-03-25T04:26:16;145838.44;;;6.73;100.00
6938;BME280;40040;42.706;23.372;2023-03-25T04:28:44;145810.16;;;6.62;100.00
6938;BME280;40040;42.706;23.372;2023-03-25T04:31:12;145774.50;;;6.47;100.00
6938;BME280;40040;42.706;23.372;2023-03-25T04:33:41;145767.13;;;6.44;100.00
6938;BME280;40040;42.706;23.372;2023-03-25T04:36:11;145759.75;;;6.41;100.00
6938;BME280;40040;42.706;23.372;2023-03-25T04:38:39;145769.56;;;6.45;100.00
6938;BME280;40040;42.706;23.372;2023-03-25T04:41:06;145753.59;;;6.39;100.00
6938;BME280;40040;42.706;23.372;2023-03-25T04:43:32;145762.19;;;6.42;100.00
6938;BME280;40040;42.706;23.372;2023-03-25T04:46:01;145774.50;;;6.47;100.00
6938;BME280;40040;42.706;23.372;2023-03-25T04:48:29;145756.03;;;6.40;100.00
6938;BME280;40040;42.706;23.372;2023-03-25T04:50:57;145754.84;;;6.39;100.00
6938;BME280;40040;42.706;23.372;2023-03-25T04:53:24;145758.50;;;6.41;100.00
6938;BME280;40040;42.706;23.372;2023-03-25T04:55:53;145772.06;;;6.46;100.00
6938;BME280;40040;42.706;23.372;2023-03-25T04:58:20;145800.31;;;6.58;100.00
6938;BME280;40040;42.706;23.372;2023-03-25T05:00:49;145802.81;;;6.59;100.00
6938;BME280;40040;42.706;23.372;2023-03-25T05:03:18;145829.84;;;6.70;100.00
6938;BME280;40040;42.706;23.372;2023-03-25T05:05:48;145823.72;;;6.67;100.00
6938;BME280;40040;42.706;23.372;2023-03-25T05:08:15;145813.84;;;6.63;100.00
6938;BME280;40040;42.706;23.372;2023-03-25T05:10:43;145833.50;;;6.71;100.00
6938;BME280;40040;42.706;23.372;2023-03-25T05:13:10;145875.38;;;6.89;100.00
6938;BME280;40040;42.706;23.372;2023-03-25T05:15:37;145854.41;;;6.80;100.00
6938;BME280;40040;42.706;23.372;2023-03-25T05:18:06;145881.50;;;6.91;100.00
6938;BME280;40040;42.706;23.372;2023-03-25T05:20:37;145965.19;;;7.25;100.00
6938;BME280;40040;42.706;23.372;2023-03-25T05:23:04;145979.91;;;7.31;100.00
6938;BME280;40040;42.706;23.372;2023-03-25T05:25:37;146030.38;;;7.52;100.00
6938;BME280;40040;42.706;23.372;2023-03-25T05:28:04;146064.84;;;7.66;100.00
6938;BME280;40040;42.706;23.372;2023-03-25T05:30:34;146072.22;;;7.69;100.00
6938;BME280;40040;42.706;23.372;2023-03-25T05:33:03;146123.91;;;7.90;100.00
6938;BME280;40040;42.706;23.372;2023-03-25T05:35:30;146162.06;;;8.06;100.00
6938;BME280;40040;42.706;23.372;2023-03-25T05:37:59;146190.41;;;8.17;100.00
6938;BME280;40040;42.706;23.372;2023-03-25T05:40:26;146220.03;;;8.29;100.00
6938;BME280;40040;42.706;23.372;2023-03-25T05:42:53;146226.16;;;8.32;100.00
6938;BME280;40040;42.706;23.372;2023-03-25T05:45:21;146266.81;;;8.48;100.00
6938;BME280;40040;42.706;23.372;2023-03-25T05:47:48;146277.88;;;8.53;100.00
6938;BME280;40040;42.706;23.372;2023-03-25T05:50:15;146333.31;;;8.75;100.00
6938;BME280;40040;42.706;23.372;2023-03-25T05:52:42;146328.44;;;8.73;100.00
6938;BME280;40040;42.706;23.372;2023-03-25T05:55:15;146377.69;;;8.93;100.00
6938;BME280;40040;42.706;23.372;2023-03-25T05:57:42;146417.13;;;9.09;100.00
6938;BME280;40040;42.706;23.372;2023-03-25T06:00:10;146426.94;;;9.13;100.00
6938;BME280;40040;42.706;23.372;2023-03-25T06:02:37;146451.63;;;9.24;100.00
6938;BME280;40040;42.706;23.372;2023-03-25T06:05:08;146484.91;;;9.37;100.00
6938;BME280;40040;42.706;23.372;2023-03-25T06:07:38;146520.66;;;9.52;100.00
6938;BME280;40040;42.706;23.372;2023-03-25T06:10:08;146556.38;;;9.66;100.00
6938;BME280;40040;42.706;23.372;2023-03-25T06:12:36;146594.59;;;9.82;100.00
6938;BME280;40040;42.706;23.372;2023-03-25T06:15:06;146641.47;;;10.01;100.00
6938;BME280;40040;42.706;23.372;2023-03-25T06:17:33;146662.47;;;10.09;100.00
6938;BME280;40040;42.706;23.372;2023-03-25T06:20:04;146700.75;;;10.25;100.00
6938;BME280;40040;42.706;23.372;2023-03-25T06:22:36;146752.50;;;10.46;100.00
6938;BME280;40040;42.706;23.372;2023-03-25T06:25:04;146782.16;;;10.58;100.00
6938;BME280;40040;42.706;23.372;2023-03-25T06:27:30;146806.84;;;10.68;100.00
6938;BME280;40040;42.706;23.372;2023-03-25T06:30:01;146824.09;;;10.75;99.51
6938;BME280;40040;42.706;23.372;2023-03-25T06:32:28;146878.38;;;10.97;97.97
6938;BME280;40040;42.706;23.372;2023-03-25T06:34:55;146917.91;;;11.13;97.18
6938;BME280;40040;42.706;23.372;2023-03-25T06:37:22;146917.91;;;11.13;95.56
6938;BME280;40040;42.706;23.372;2023-03-25T06:39:50;146980.84;;;11.39;95.06
6938;BME280;40040;42.706;23.372;2023-03-25T06:42:21;147001.81;;;11.48;93.05
6938;BME280;40040;42.706;23.372;2023-03-25T06:44:48;147017.84;;;11.54;92.95
6938;BME280;40040;42.706;23.372;2023-03-25T06:47:16;147051.28;;;11.68;91.33
6938;BME280;40040;42.706;23.372;2023-03-25T06:49:43;147079.66;;;11.79;90.61
6938;BME280;40040;42.706;23.372;2023-03-25T06:52:10;147114.25;;;11.93;90.17
6938;BME280;40040;42.706;23.372;2023-03-25T06:54:37;147129.09;;;11.99;88.62
6938;BME280;40040;42.706;23.372;2023-03-25T06:57:04;147145.13;;;12.06;86.66
6938;BME280;40040;42.706;23.372;2023-03-25T06:59:31;147153.78;;;12.09;85.63
6938;BME280;40040;42.706;23.372;2023-03-25T07:01:58;147156.22;;;12.10;84.45
6938;BME280;40040;42.706;23.372;2023-03-25T07:04:26;147174.78;;;12.18;82.45
6938;BME280;40040;42.706;23.372;2023-03-25T07:06:53;147190.81;;;12.24;84.50
6938;BME280;40040;42.706;23.372;2023-03-25T07:09:20;147215.50;;;12.34;80.72
6938;BME280;40040;42.706;23.372;2023-03-25T07:11:47;147234.06;;;12.42;80.93
6938;BME280;40040;42.706;23.372;2023-03-25T07:14:14;147201.97;;;12.29;80.38
6938;BME280;40040;42.706;23.372;2023-03-25T07:16:40;147257.56;;;12.52;80.06
6938;BME280;40040;42.706;23.372;2023-03-25T07:19:07;147269.91;;;12.57;80.71
6938;BME280;40040;42.706;23.372;2023-03-25T07:21:35;147278.56;;;12.60;81.83
6938;BME280;40040;42.706;23.372;2023-03-25T07:24:02;147298.31;;;12.68;80.96
6938;BME280;40040;42.706;23.372;2023-03-25T07:26:29;147319.31;;;12.77;80.20
6938;BME280;40040;42.706;23.372;2023-03-25T07:28:56;147330.47;;;12.81;80.54
6938;BME280;40040;42.706;23.372;2023-03-25T07:31:23;147368.78;;;12.97;79.11
6938;BME280;40040;42.706;23.372;2023-03-25T07:33:50;147352.69;;;12.90;78.44
6938;BME280;40040;42.706;23.372;2023-03-25T07:36:17;147323.03;;;12.78;80.26
6938;BME280;40040;42.706;23.372;2023-03-25T07:38:47;147345.28;;;12.87;79.45
6938;BME280;40040;42.706;23.372;2023-03-25T07:41:14;147339.13;;;12.85;78.78
6938;BME280;40040;42.706;23.372;2023-03-25T07:43:41;147340.31;;;12.85;79.13
6938;BME280;40040;42.706;23.372;2023-03-25T07:46:10;147400.94;;;13.10;79.28
6938;BME280;40040;42.706;23.372;2023-03-25T07:48:37;147473.88;;;13.39;78.68
6938;BME280;40040;42.706;23.372;2023-03-25T07:51:04;147539.44;;;13.66;76.76
6938;BME280;40040;42.706;23.372;2023-03-25T07:53:31;147608.69;;;13.94;73.86
6938;BME280;40040;42.706;23.372;2023-03-25T07:55:59;147627.22;;;14.02;73.20
6938;BME280;40040;42.706;23.372;2023-03-25T07:58:26;147679.19;;;14.23;72.91
6938;BME280;40040;42.706;23.372;2023-03-25T08:00:55;147718.84;;;14.39;71.91
6938;BME280;40040;42.706;23.372;2023-03-25T08:03:22;147779.47;;;14.63;69.51
6938;BME280;40040;42.706;23.372;2023-03-25T08:05:49;147867.38;;;14.99;68.60
6938;BME280;40040;42.706;23.372;2023-03-25T08:08:16;147913.16;;;15.18;69.16
6938;BME280;40040;42.706;23.372;2023-03-25T08:10:43;148020.97;;;15.61;65.99
6938;BME280;40040;42.706;23.372;2023-03-25T08:13:13;148068.03;;;15.81;64.28
6938;BME280;40040;42.706;23.372;2023-03-25T08:15:40;148071.72;;;15.82;64.11
6938;BME280;40040;42.706;23.372;2023-03-25T08:18:07;148059.34;;;15.77;63.72
6938;BME280;40040;42.706;23.372;2023-03-25T08:20:34;148100.19;;;15.94;63.21
6938;BME280;40040;42.706;23.372;2023-03-25T08:23:01;148137.41;;;16.09;63.08
6938;BME280;40040;42.706;23.372;2023-03-25T08:25:28;148211.72;;;16.39;62.41
6938;BME280;40040;42.706;23.372;2023-03-25T08:27:55;148310.91;;;16.79;60.19
6938;BME280;40040;42.706;23.372;2023-03-25T08:30:23;148381.59;;;17.08;59.75
6938;BME280;40040;42.706;23.372;2023-03-25T08:32:50;148506.88;;;17.58;58.72
6938;BME280;40040;42.706;23.372;2023-03-25T08:35:20;148616.06;;;18.03;56.32
6938;BME280;40040;42.706;23.372;2023-03-25T08:37:48;148688.00;;;18.32;55.92
6938;BME280;40040;42.706;23.372;2023-03-25T08:40:15;148778.66;;;18.68;54.99
6938;BME280;40040;42.706;23.372;2023-03-25T08:42:42;148784.84;;;18.71;54.13
6938;BME280;40040;42.706;23.372;2023-03-25T08:45:10;148830.78;;;18.89;54.32
6938;BME280;40040;42.706;23.372;2023-03-25T08:47:38;148933.91;;;19.31;52.99
6938;BME280;40040;42.706;23.372;2023-03-25T08:50:07;149003.44;;;19.59;50.15
6938;BME280;40040;42.706;23.372;2023-03-25T08:52:34;149061.81;;;19.83;50.40
6938;BME280;40040;42.706;23.372;2023-03-25T08:55:01;149157.53;;;20.22;49.25
6938;BME280;40040;42.706;23.372;2023-03-25T08:57:29;149294.22;;;20.77;48.18
6938;BME280;40040;42.706;23.372;2023-03-25T08:59:56;149349.00;;;20.99;47.31
6938;BME280;40040;42.706;23.372;2023-03-25T09:02:23;149340.25;;;20.95;47.58
6938;BME280;40040;42.706;23.372;2023-03-25T09:04:52;149278.06;;;20.70;47.42
6938;BME280;40040;42.706;23.372;2023-03-25T09:07:19;149212.19;;;20.44;48.96
6938;BME280;40040;42.706;23.372;2023-03-25T09:09:47;149219.69;;;20.47;48.71
6938;BME280;40040;42.706;23.372;2023-03-25T09:12:14;149301.72;;;20.80;47.90
6938;BME280;40040;42.706;23.372;2023-03-25T09:14:41;149346.44;;;20.98;48.67
6938;BME280;40040;42.706;23.372;2023-03-25T09:17:08;149454.66;;;21.42;47.69
6938;BME280;40040;42.706;23.372;2023-03-25T09:19:35;149538.00;;;21.75;46.91
6938;BME280;40040;42.706;23.372;2023-03-25T09:22:04;149600.22;;;22.00;46.15
6938;BME280;40040;42.706;23.372;2023-03-25T09:24:31;149659.97;;;22.24;45.52
6938;BME280;40040;42.706;23.372;2023-03-25T09:26:58;149732.13;;;22.54;44.34
6938;BME280;40040;42.706;23.372;2023-03-25T09:29:26;149774.50;;;22.71;43.70
6938;BME280;40040;42.706;23.372;2023-03-25T09:31:55;149836.75;;;22.96;42.48
6938;BME280;40040;42.706;23.372;2023-03-25T09:34:24;149900.22;;;23.21;41.78
6938;BME280;40040;42.706;23.372;2023-03-25T09:36:51;149856.66;;;23.04;42.00
6938;BME280;40040;42.706;23.372;2023-03-25T09:39:19;149941.34;;;23.38;41.68
6938;BME280;40040;42.706;23.372;2023-03-25T09:42:00;150042.22;;;23.79;41.54
6938;BME280;40040;42.706;23.372;2023-03-25T09:44:34;150170.56;;;24.30;40.56
6938;BME280;40040;42.706;23.372;2023-03-25T09:47:05;150291.53;;;24.79;39.88
6938;BME280;40040;42.706;23.372;2023-03-25T09:49:38;150247.88;;;24.62;39.78
6938;BME280;40040;42.706;23.372;2023-03-25T09:52:09;150318.94;;;24.90;38.99
6938;BME280;40040;42.706;23.372;2023-03-25T09:54:43;150198.00;;;24.41;39.51
6938;BME280;40040;42.706;23.372;2023-03-25T09:57:17;150247.88;;;24.62;39.26
6938;BME280;40040;42.706;23.372;2023-03-25T09:59:46;150240.34;;;24.59;38.10
6938;BME280;40040;42.706;23.372;2023-03-25T10:02:25;150196.72;;;24.41;38.99
6938;BME280;40040;42.706;23.372;2023-03-25T10:05:10;150240.34;;;24.59;39.92
6938;BME280;40040;42.706;23.372;2023-03-25T10:07:50;150221.69;;;24.51;38.74
6938;BME280;40040;42.706;23.372;2023-03-25T10:10:25;150217.97;;;24.49;37.26
6938;BME280;40040;42.706;23.372;2023-03-25T10:13:00;150080.84;;;23.94;36.84
6938;BME280;40040;42.706;23.372;2023-03-25T10:15:31;150043.47;;;23.79;39.51
6938;BME280;40040;42.706;23.372;2023-03-25T10:18:15;150026.03;;;23.72;38.51
6938;BME280;40040;42.706;23.372;2023-03-25T10:20:50;149953.84;;;23.43;36.42
6938;BME280;40040;42.706;23.372;2023-03-25T10:23:23;149889.03;;;23.17;38.07
6938;BME280;40040;42.706;23.372;2023-03-25T10:25:56;149836.75;;;22.96;37.36
6938;BME280;40040;42.706;23.372;2023-03-25T10:28:27;149821.78;;;22.90;38.24
6938;BME280;40040;42.706;23.372;2023-03-25T10:30:55;149871.59;;;23.10;37.07
6938;BME280;40040;42.706;23.372;2023-03-25T10:33:30;149898.97;;;23.21;37.65
6938;BME280;40040;42.706;23.372;2023-03-25T10:36:00;149898.97;;;23.21;36.99
6938;BME280;40040;42.706;23.372;2023-03-25T10:38:29;149895.22;;;23.19;36.07
6938;BME280;40040;42.706;23.372;2023-03-25T10:41:09;149856.66;;;23.04;36.89
6938;BME280;40040;42.706;23.372;2023-03-25T10:43:38;149834.22;;;22.95;35.89
6938;BME280;40040;42.706;23.372;2023-03-25T10:46:24;149983.72;;;23.55;36.46
6938;BME280;40040;42.706;23.372;2023-03-25T10:48:52;150118.28;;;24.09;36.00
6938;BME280;40040;42.706;23.372;2023-03-25T10:51:20;150180.56;;;24.34;35.04
6938;BME280;40040;42.706;23.372;2023-03-25T10:53:50;150189.28;;;24.38;34.66
6938;BME280;40040;42.706;23.372;2023-03-25T10:56:23;150255.31;;;24.65;33.90
6938;BME280;40040;42.706;23.372;2023-03-25T10:58:52;150305.22;;;24.85;34.16
6938;BME280;40040;42.706;23.372;2023-03-25T11:01:21;150307.72;;;24.86;34.31
6938;BME280;40040;42.706;23.372;2023-03-25T11:03:53;150322.66;;;24.92;35.42
6938;BME280;40040;42.706;23.372;2023-03-25T11:06:24;150346.38;;;25.01;36.00
6938;BME280;40040;42.706;23.372;2023-03-25T11:09:12;150439.91;;;25.39;35.60
6938;BME280;40040;42.706;23.372;2023-03-25T11:11:41;150476.06;;;25.53;34.55
6938;BME280;40040;42.706;23.372;2023-03-25T11:14:09;150467.34;;;25.50;33.88
6938;BME280;40040;42.706;23.372;2023-03-25T11:16:41;150517.19;;;25.70;34.12
6938;BME280;40040;42.706;23.372;2023-03-25T11:19:16;150469.81;;;25.51;33.34
6938;BME280;40040;42.706;23.372;2023-03-25T11:21:46;150451.13;;;25.43;33.95
6938;BME280;40040;42.706;23.372;2023-03-25T11:24:14;150356.34;;;25.05;34.90
6938;BME280;40040;42.706;23.372;2023-03-25T11:26:45;150308.94;;;24.86;34.33
6938;BME280;40040;42.706;23.372;2023-03-25T11:29:18;150267.84;;;24.70;35.24
6938;BME280;40040;42.706;23.372;2023-03-25T11:31:56;150295.28;;;24.81;35.26
6938;BME280;40040;42.706;23.372;2023-03-25T11:34:23;150356.34;;;25.05;35.29
6938;BME280;40040;42.706;23.372;2023-03-25T11:36:52;150295.28;;;24.81;33.92
6938;BME280;40040;42.706;23.372;2023-03-25T11:39:33;150226.63;;;24.53;35.08
6938;BME280;40040;42.706;23.372;2023-03-25T11:42:12;150215.44;;;24.48;34.49
6938;BME280;40040;42.706;23.372;2023-03-25T11:44:40;150236.63;;;24.57;35.30
6938;BME280;40040;42.706;23.372;2023-03-25T11:47:09;150226.63;;;24.53;34.57
6938;BME280;40040;42.706;23.372;2023-03-25T11:49:38;150198.00;;;24.41;35.00
6938;BME280;40040;42.706;23.372;2023-03-25T11:52:07;150067.13;;;23.89;34.55
6938;BME280;40040;42.706;23.372;2023-03-25T11:54:36;150024.78;;;23.72;35.71
6938;BME280;40040;42.706;23.372;2023-03-25T11:57:05;149992.44;;;23.59;35.66
6938;BME280;40040;42.706;23.372;2023-03-25T11:59:38;149991.16;;;23.58;36.05
6938;BME280;40040;42.706;23.372;2023-03-25T12:02:20;150001.16;;;23.62;36.40
6938;BME280;40040;42.706;23.372;2023-03-25T12:04:55;149961.28;;;23.46;36.52
6938;BME280;40040;42.706;23.372;2023-03-25T12:07:22;149918.97;;;23.29;36.59
6938;BME280;40040;42.706;23.372;2023-03-25T12:09:53;149907.69;;;23.24;36.01
6938;BME280;40040;42.706;23.372;2023-03-25T12:12:29;149880.31;;;23.13;36.28
6938;BME280;40040;42.706;23.372;2023-03-25T12:15:07;149859.09;;;23.05;36.41
6938;BME280;40040;42.706;23.372;2023-03-25T12:17:50;149854.19;;;23.03;36.71
6938;BME280;40040;42.706;23.372;2023-03-25T12:20:26;149885.25;;;23.15;36.58
6938;BME280;40040;42.706;23.372;2023-03-25T12:23:01;149889.03;;;23.17;36.66
6938;BME280;40040;42.706;23.372;2023-03-25T12:25:39;149920.16;;;23.29;36.33
6938;BME280;40040;42.706;23.372;2023-03-25T12:31:22;149983.72;;;23.55;35.27
6938;BME280;40040;42.706;23.372;2023-03-25T12:34:00;149973.72;;;23.51;35.48
6938;BME280;40040;42.706;23.372;2023-03-25T12:36:43;150018.59;;;23.69;34.58
6938;BME280;40040;42.706;23.372;2023-03-25T12:39:29;150038.50;;;23.77;35.30
6938;BME280;40040;42.706;23.372;2023-03-25T12:42:05;150028.50;;;23.73;35.27
6938;BME280;40040;42.706;23.372;2023-03-25T12:44:45;150007.34;;;23.65;35.02
6938;BME280;40040;42.706;23.372;2023-03-25T12:47:22;149999.88;;;23.62;35.41
6938;BME280;40040;42.706;23.372;2023-03-25T12:49:58;149993.63;;;23.59;35.73
6938;BME280;40040;42.706;23.372;2023-03-25T12:52:35;149961.28;;;23.46;35.49
6938;BME280;40040;42.706;23.372;2023-03-25T12:55:24;149916.44;;;23.28;35.47
6938;BME280;40040;42.706;23.372;2023-03-25T12:58:08;149851.66;;;23.02;35.96
6938;BME280;40040;42.706;23.372;2023-03-25T13:00:46;149849.19;;;23.01;35.90
6938;BME280;40040;42.706;23.372;2023-03-25T13:03:36;149886.50;;;23.16;36.22
6938;BME280;40040;42.706;23.372;2023-03-25T13:06:15;149876.53;;;23.12;35.86
6938;BME280;40040;42.706;23.372;2023-03-25T13:08:46;149884.06;;;23.15;35.76
6938;BME280;40040;42.706;23.372;2023-03-25T13:11:21;149867.81;;;23.08;36.28
6938;BME280;40040;42.706;23.372;2023-03-25T13:13:51;149824.31;;;22.91;35.93
6938;BME280;40040;42.706;23.372;2023-03-25T13:16:21;149779.47;;;22.73;36.22